Time;durP1;ratioP1;P1;durP2;ratioP2;P2;SDS_P1;SDS_P2;PMS_P1;PMS_P2;Temp;Humidity;BMP_temperature;BMP_pressure;BME280_temperature;BME280_humidity;BME280_pressure;Samples;Min_cycle;Max_cycle;Signal;HPM_P1;HPM_P2
2021/05/23 00:02:13;;;;;;;6.42;1.75;;;11.50;99.90;;;;;;1916259;74;21582;-81
2021/05/23 00:04:41;;;;;;;10.63;2.60;;;11.40;99.90;;;;;;1921023;73;21188;-80
2021/05/23 00:07:13;;;;;;;10.70;2.55;;;11.40;99.90;;;;;;1920424;74;21061;-80
2021/05/23 00:09:41;;;;;;;15.05;2.45;;;11.40;99.90;;;;;;1920101;74;21080;-79
2021/05/23 00:12:13;;;;;;;9.70;2.10;;;11.40;99.90;;;;;;1913190;74;21114;-80
2021/05/23 00:14:41;;;;;;;7.00;2.05;;;11.30;99.90;;;;;;1919202;73;21525;-80
2021/05/23 00:17:09;;;;;;;8.88;2.42;;;11.30;99.90;;;;;;1917187;74;21026;-79
2021/05/23 00:19:36;;;;;;;5.65;1.80;;;11.30;99.90;;;;;;1919181;74;21015;-79
2021/05/23 00:22:05;;;;;;;9.33;2.20;;;11.30;99.90;;;;;;1920796;74;21073;-80
2021/05/23 00:24:32;;;;;;;10.38;2.70;;;11.30;99.90;;;;;;1920133;73;21548;-80
2021/05/23 00:27:00;;;;;;;7.35;2.10;;;11.20;99.90;;;;;;1917807;73;21147;-79
2021/05/23 00:29:27;;;;;;;10.28;2.42;;;11.20;99.90;;;;;;1913582;74;21074;-79
2021/05/23 00:31:55;;;;;;;11.33;2.60;;;11.30;99.90;;;;;;1916636;74;21546;-80
2021/05/23 00:34:22;;;;;;;9.33;2.25;;;11.30;99.90;;;;;;1921093;73;21095;-79
2021/05/23 00:36:51;;;;;;;10.20;2.87;;;11.30;99.90;;;;;;1921326;74;21038;-80
2021/05/23 00:39:19;;;;;;;10.13;2.35;;;11.30;99.90;;;;;;1912888;74;21126;-79
2021/05/23 00:41:46;;;;;;;7.60;2.37;;;11.20;99.90;;;;;;1915387;74;21034;-81
2021/05/23 00:44:14;;;;;;;8.20;2.17;;;11.40;99.90;;;;;;1917555;74;21554;-82
2021/05/23 00:46:41;;;;;;;8.55;2.55;;;11.30;99.90;;;;;;1915803;74;21116;-81
2021/05/23 00:49:09;;;;;;;8.25;2.37;;;11.20;99.90;;;;;;1919591;73;21172;-78
2021/05/23 00:51:36;;;;;;;8.33;2.33;;;11.30;99.90;;;;;;1917787;74;21114;-81
2021/05/23 00:54:04;;;;;;;8.28;1.98;;;11.30;99.90;;;;;;1920491;74;21062;-81
2021/05/23 00:56:34;;;;;;;10.28;2.35;;;11.40;99.90;;;;;;1920378;73;21078;-81
2021/05/23 00:59:01;;;;;;;13.30;2.50;;;11.50;99.90;;;;;;1916403;74;21142;-81
2021/05/23 01:01:47;;;;;;;7.12;2.27;;;11.50;99.90;;;;;;1921705;73;21112;-81
2021/05/23 01:04:14;;;;;;;11.03;2.55;;;11.50;99.90;;;;;;1912680;74;21626;-81
2021/05/23 01:06:42;;;;;;;7.83;2.45;;;11.40;99.90;;;;;;1918549;74;21217;-80
2021/05/23 01:09:10;;;;;;;10.38;2.40;;;11.30;99.90;;;;;;1917968;73;22276;-81
2021/05/23 01:11:48;;;;;;;8.15;2.45;;;11.20;99.90;;;;;;1918154;73;21094;-81
2021/05/23 01:14:45;;;;;;;20.27;2.83;;;11.10;99.90;;;;;;1910575;74;21137;-81
2021/05/23 01:17:13;;;;;;;8.93;2.27;;;11.10;99.90;;;;;;1896506;74;21604;-80
2021/05/23 01:19:55;;;;;;;12.75;2.27;;;11.00;99.90;;;;;;1915721;74;21250;-80
2021/05/23 01:22:34;;;;;;;10.72;2.50;;;11.20;99.90;;;;;;1922570;73;21153;-81
2021/05/23 01:25:05;;;;;;;13.65;3.12;;;11.30;99.90;;;;;;1847190;74;21125;-79
2021/05/23 01:27:44;;;;;;;11.70;2.75;;;11.20;99.90;;;;;;1911800;74;21686;-81
2021/05/23 01:30:06;;;;;;;10.80;2.80;;;11.10;99.90;;;;;;1914816;74;21261;-81
2021/05/23 01:32:36;;;;;;;9.10;2.37;;;11.00;99.90;;;;;;1909208;74;21163;-80
2021/05/23 01:35:12;;;;;;;12.85;2.25;;;11.10;99.90;;;;;;1921382;74;21493;-81
2021/05/23 01:37:39;;;;;;;10.60;2.45;;;11.00;99.90;;;;;;1918768;74;21082;-80
2021/05/23 01:40:08;;;;;;;12.95;3.10;;;11.10;99.90;;;;;;1925043;74;21057;-80
2021/05/23 01:42:35;;;;;;;11.78;2.33;;;11.00;99.90;;;;;;1911382;73;21088;-80
2021/05/23 01:45:03;;;;;;;8.15;2.33;;;11.00;99.90;;;;;;1917777;74;21096;-81
2021/05/23 01:47:31;;;;;;;9.33;2.47;;;11.10;99.90;;;;;;1912172;74;21074;-81
2021/05/23 01:49:59;;;;;;;9.45;2.35;;;11.20;99.90;;;;;;1917334;74;21081;-81
2021/05/23 01:52:26;;;;;;;12.50;2.65;;;11.20;99.90;;;;;;1922339;73;21207;-81
2021/05/23 01:54:54;;;;;;;11.18;3.00;;;11.20;99.90;;;;;;1915672;74;21183;-81
2021/05/23 01:57:22;;;;;;;9.85;2.25;;;11.00;99.90;;;;;;1920323;74;21053;-81
2021/05/23 01:59:49;;;;;;;9.88;2.83;;;11.00;99.90;;;;;;1918863;74;21140;-81
2021/05/23 02:02:17;;;;;;;11.10;2.72;;;10.90;99.90;;;;;;1921668;74;21569;-81
2021/05/23 02:04:45;;;;;;;13.93;2.58;;;10.90;99.90;;;;;;1917729;73;21704;-81
2021/05/23 02:07:12;;;;;;;8.48;2.70;;;11.00;99.90;;;;;;1921205;74;21119;-81
2021/05/23 02:09:40;;;;;;;11.83;2.83;;;10.90;99.90;;;;;;1920153;73;21116;-80
2021/05/23 02:12:08;;;;;;;9.75;2.62;;;10.90;99.90;;;;;;1915242;74;21073;-81
2021/05/23 02:14:35;;;;;;;12.25;3.00;;;10.90;99.90;;;;;;1917256;74;21085;-81
2021/05/23 02:17:03;;;;;;;11.18;2.17;;;10.80;99.90;;;;;;1918818;74;21195;-80
2021/05/23 02:19:30;;;;;;;11.15;2.25;;;10.70;99.90;;;;;;1917061;73;21089;-80
2021/05/23 02:21:58;;;;;;;11.93;2.60;;;10.70;99.90;;;;;;1921136;74;21617;-80
2021/05/23 02:24:25;;;;;;;12.25;2.62;;;10.60;99.90;;;;;;1923459;73;21222;-80
2021/05/23 02:26:53;;;;;;;10.15;2.60;;;10.60;99.90;;;;;;1919250;74;21248;-79
2021/05/23 02:29:20;;;;;;;13.20;3.02;;;10.50;99.90;;;;;;1914537;74;21131;-80
2021/05/23 02:31:47;;;;;;;13.70;2.85;;;10.60;99.90;;;;;;1920680;74;21066;-80
2021/05/23 02:34:15;;;;;;;9.58;2.47;;;10.70;99.90;;;;;;1919983;73;21125;-80
2021/05/23 02:36:42;;;;;;;10.65;2.77;;;10.60;99.90;;;;;;1915399;74;21155;-80
2021/05/23 02:39:10;;;;;;;7.67;2.60;;;10.60;99.90;;;;;;1915957;74;21124;-80
2021/05/23 02:41:39;;;;;;;9.10;2.20;;;10.60;99.90;;;;;;1917831;73;21410;-80
2021/05/23 02:44:07;;;;;;;14.07;2.72;;;10.70;99.90;;;;;;1918136;73;21540;-80
2021/05/23 02:46:36;;;;;;;9.98;2.65;;;10.60;99.90;;;;;;1919426;74;21603;-80
2021/05/23 02:49:03;;;;;;;13.03;2.83;;;10.60;99.90;;;;;;1921102;73;21167;-80
2021/05/23 02:51:31;;;;;;;10.78;2.85;;;10.50;99.90;;;;;;1918326;73;21105;-80
2021/05/23 02:53:58;;;;;;;10.43;3.00;;;10.40;99.90;;;;;;1922166;73;21207;-80
2021/05/23 02:56:26;;;;;;;10.65;2.70;;;10.40;99.90;;;;;;1919604;73;21164;-80
2021/05/23 02:58:53;;;;;;;11.20;2.75;;;10.30;99.90;;;;;;1916609;74;21613;-80
2021/05/23 03:01:21;;;;;;;12.05;3.08;;;10.30;99.90;;;;;;1918737;74;21171;-80
2021/05/23 03:03:48;;;;;;;12.88;2.85;;;9.90;99.90;;;;;;1921742;73;21090;-80
2021/05/23 03:06:16;;;;;;;12.73;3.08;;;9.90;99.90;;;;;;1918446;74;21062;-80
2021/05/23 03:08:43;;;;;;;11.70;3.00;;;9.70;99.90;;;;;;1913629;74;22120;-80
2021/05/23 03:11:11;;;;;;;12.07;3.05;;;9.50;99.90;;;;;;1915541;74;21457;-80
2021/05/23 03:13:39;;;;;;;14.65;3.25;;;9.30;99.90;;;;;;1914123;73;21663;-79
2021/05/23 03:16:06;;;;;;;10.90;3.98;;;9.70;99.90;;;;;;1921215;73;21207;-80
2021/05/23 03:18:34;;;;;;;9.95;3.40;;;9.60;99.90;;;;;;1920661;74;21117;-79
2021/05/23 03:21:02;;;;;;;12.10;3.60;;;9.50;99.90;;;;;;1913134;74;21665;-80
2021/05/23 03:23:29;;;;;;;14.40;4.00;;;9.60;99.90;;;;;;1917704;74;21124;-80
2021/05/23 03:25:58;;;;;;;13.32;3.95;;;9.60;99.90;;;;;;1910983;74;21203;-80
2021/05/23 03:28:25;;;;;;;14.00;4.55;;;9.40;99.90;;;;;;1919297;74;21074;-80
2021/05/23 03:30:53;;;;;;;10.80;4.05;;;9.50;99.90;;;;;;1919679;73;21097;-80
2021/05/23 03:33:20;;;;;;;12.18;4.05;;;9.40;99.90;;;;;;1920372;74;21069;-80
2021/05/23 03:35:48;;;;;;;14.15;4.03;;;9.30;99.90;;;;;;1914350;74;21097;-80
2021/05/23 03:38:15;;;;;;;12.30;3.47;;;9.40;99.90;;;;;;1919391;74;21133;-80
2021/05/23 03:40:43;;;;;;;16.07;4.22;;;9.30;99.90;;;;;;1914708;73;21435;-80
2021/05/23 03:43:11;;;;;;;14.80;4.65;;;9.40;99.90;;;;;;1915810;74;21695;-80
2021/05/23 03:45:38;;;;;;;11.88;4.60;;;9.20;99.90;;;;;;1913490;74;21609;-80
2021/05/23 03:48:07;;;;;;;15.08;4.25;;;9.20;99.90;;;;;;1915179;74;21030;-80
2021/05/23 03:50:35;;;;;;;10.35;3.77;;;9.00;99.90;;;;;;1917886;73;21389;-80
2021/05/23 03:53:05;;;;;;;13.80;4.62;;;9.00;99.90;;;;;;1920581;74;21038;-79
2021/05/23 03:55:32;;;;;;;16.45;5.05;;;9.00;99.90;;;;;;1911650;74;21173;-78
2021/05/23 03:58:00;;;;;;;16.20;4.90;;;9.00;99.90;;;;;;1916682;74;21113;-80
2021/05/23 04:00:28;;;;;;;14.20;5.65;;;9.00;99.90;;;;;;1907772;74;21207;-79
2021/05/23 04:02:57;;;;;;;16.07;5.35;;;9.20;99.90;;;;;;1917095;74;21085;-79
2021/05/23 04:05:27;;;;;;;16.12;5.45;;;9.30;99.90;;;;;;1920095;73;21626;-80
2021/05/23 04:07:56;;;;;;;12.00;5.42;;;9.50;99.90;;;;;;1915102;74;21038;-79
2021/05/23 04:10:27;;;;;;;15.08;5.65;;;9.60;99.90;;;;;;1915282;73;21117;-79
2021/05/23 04:12:55;;;;;;;19.48;5.60;;;9.60;99.90;;;;;;1905807;74;22283;-79
2021/05/23 04:15:24;;;;;;;15.68;5.80;;;9.70;99.90;;;;;;1921130;73;21238;-79
2021/05/23 04:17:52;;;;;;;24.90;5.87;;;9.80;99.90;;;;;;1920107;73;21183;-80
2021/05/23 04:20:22;;;;;;;15.30;5.95;;;9.80;99.90;;;;;;1910383;74;21160;-80
2021/05/23 04:22:51;;;;;;;12.53;4.87;;;9.90;99.90;;;;;;1919632;74;21023;-80
2021/05/23 04:25:20;;;;;;;14.23;5.17;;;10.00;99.90;;;;;;1920724;73;21203;-80
2021/05/23 04:27:49;;;;;;;19.27;4.92;;;10.00;99.90;;;;;;1916478;74;21469;-80
2021/05/23 04:30:20;;;;;;;15.35;5.65;;;10.00;99.90;;;;;;1916865;73;21105;-79
2021/05/23 04:32:48;;;;;;;17.95;5.67;;;10.00;99.90;;;;;;1921020;74;21570;-79
2021/05/23 04:35:16;;;;;;;20.57;4.83;;;10.00;99.90;;;;;;1915519;73;21210;-79
2021/05/23 04:37:45;;;;;;;14.20;5.00;;;10.00;99.90;;;;;;1916592;74;21566;-80
2021/05/23 04:40:15;;;;;;;15.60;5.00;;;10.10;99.90;;;;;;1920159;73;21129;-81
2021/05/23 04:42:43;;;;;;;20.75;5.65;;;10.30;99.90;;;;;;1917995;74;21194;-81
2021/05/23 04:45:12;;;;;;;20.62;5.15;;;10.30;99.90;;;;;;1922040;73;21646;-81
2021/05/23 04:47:39;;;;;;;16.07;5.12;;;10.20;99.90;;;;;;1920652;74;21105;-80
2021/05/23 04:50:08;;;;;;;19.15;4.80;;;10.10;99.90;;;;;;1914339;74;21089;-80
2021/05/23 04:52:36;;;;;;;17.42;5.25;;;10.20;99.90;;;;;;1918020;74;21074;-80
2021/05/23 04:55:05;;;;;;;17.98;4.97;;;10.20;99.90;;;;;;1920892;73;21137;-80
2021/05/23 04:57:33;;;;;;;16.85;5.33;;;10.10;99.90;;;;;;1919583;74;21105;-80
2021/05/23 05:00:01;;;;;;;13.10;4.53;;;10.30;99.90;;;;;;1915249;73;21624;-80
2021/05/23 05:02:28;;;;;;;19.02;5.05;;;10.50;99.90;;;;;;1921174;73;21399;-80
2021/05/23 05:04:56;;;;;;;21.33;4.97;;;10.30;99.90;;;;;;1935568;72;21597;-75
2021/05/23 05:07:23;;;;;;;18.35;5.35;;;10.20;99.90;;;;;;1957001;72;21064;-76
2021/05/23 05:09:51;;;;;;;13.60;4.12;;;10.30;99.90;;;;;;1959579;72;21168;-77
2021/05/23 05:12:20;;;;;;;15.65;5.00;;;10.40;99.90;;;;;;1915821;74;21733;-77
2021/05/23 05:14:47;;;;;;;16.93;4.17;;;10.40;99.90;;;;;;1879021;74;21234;-76
2021/05/23 05:17:15;;;;;;;17.02;4.20;;;10.50;99.90;;;;;;1912215;74;21104;-77
2021/05/23 05:19:42;;;;;;;12.60;4.22;;;10.40;99.90;;;;;;1912516;74;21144;-76
2021/05/23 05:22:10;;;;;;;17.35;4.33;;;10.40;99.90;;;;;;1906764;74;21146;-76
2021/05/23 05:24:37;;;;;;;12.35;4.22;;;10.50;99.90;;;;;;1904964;74;21046;-77
2021/05/23 05:27:05;;;;;;;13.88;3.72;;;10.60;99.90;;;;;;1904307;74;21077;-76
2021/05/23 05:29:33;;;;;;;9.95;3.37;;;10.70;99.90;;;;;;1904146;74;21111;-75
2021/05/23 05:32:02;;;;;;;11.30;3.95;;;10.80;99.90;;;;;;1907393;74;21058;-75
2021/05/23 05:34:29;;;;;;;12.47;3.25;;;10.90;99.90;;;;;;1900116;74;21595;-77
2021/05/23 05:36:57;;;;;;;16.95;4.10;;;10.90;99.90;;;;;;1915315;74;21210;-76
2021/05/23 05:39:24;;;;;;;15.00;3.50;;;11.00;99.90;;;;;;1909336;74;21136;-76
2021/05/23 05:41:52;;;;;;;14.43;3.30;;;10.90;99.90;;;;;;1913079;74;21123;-76
2021/05/23 05:44:19;;;;;;;13.85;3.40;;;10.70;99.90;;;;;;1910275;74;21116;-77
2021/05/23 05:46:47;;;;;;;13.62;3.80;;;10.80;99.90;;;;;;1911897;74;21154;-75
2021/05/23 05:49:14;;;;;;;11.57;3.12;;;10.70;99.90;;;;;;1913792;74;21119;-75
2021/05/23 05:51:42;;;;;;;16.42;3.10;;;10.70;99.90;;;;;;1921867;74;21277;-75
2021/05/23 05:54:09;;;;;;;19.40;3.90;;;10.80;99.90;;;;;;1916003;74;21178;-74
2021/05/23 05:56:41;;;;;;;10.60;2.90;;;10.80;99.90;;;;;;1909807;74;21069;-75
2021/05/23 05:59:06;;;;;;;10.40;2.60;;;10.90;99.90;;;;;;1909264;74;21162;-75
2021/05/23 06:01:34;;;;;;;14.75;3.20;;;11.10;99.90;;;;;;1911724;74;21613;-75
2021/05/23 06:04:01;;;;;;;14.23;3.80;;;11.10;99.90;;;;;;1896495;74;21155;-75
2021/05/23 06:06:29;;;;;;;16.40;3.75;;;11.10;99.90;;;;;;1908116;74;21178;-76
2021/05/23 06:08:56;;;;;;;17.70;3.52;;;10.90;99.90;;;;;;1904135;74;21144;-76
2021/05/23 06:11:24;;;;;;;13.70;3.72;;;11.00;99.90;;;;;;1906352;74;21112;-76
2021/05/23 06:13:51;;;;;;;12.18;3.30;;;11.00;99.90;;;;;;1905890;74;21129;-76
2021/05/23 06:16:19;;;;;;;12.40;3.17;;;11.30;99.90;;;;;;1911633;74;21132;-76
2021/05/23 06:18:47;;;;;;;10.78;2.87;;;11.40;99.90;;;;;;1911513;74;21120;-76
2021/05/23 06:21:14;;;;;;;10.15;2.70;;;11.30;99.90;;;;;;1915662;74;21112;-77
2021/05/23 06:23:41;;;;;;;10.70;2.52;;;11.40;99.90;;;;;;1911534;74;21081;-76
2021/05/23 06:26:13;;;;;;;14.78;2.50;;;11.30;99.90;;;;;;1908991;74;21559;-76
2021/05/23 06:28:38;;;;;;;18.17;2.83;;;11.50;99.90;;;;;;1908683;74;21127;-77
2021/05/23 06:31:06;;;;;;;17.52;2.92;;;11.60;99.90;;;;;;1908150;74;21022;-76
2021/05/23 06:33:33;;;;;;;12.60;2.77;;;11.70;99.90;;;;;;1909355;74;21155;-75
2021/05/23 06:36:01;;;;;;;16.27;2.58;;;11.80;99.90;;;;;;1911693;74;21132;-76
2021/05/23 06:38:29;;;;;;;16.65;2.87;;;11.90;99.90;;;;;;1909278;74;21100;-75
2021/05/23 06:40:56;;;;;;;13.18;2.65;;;12.10;99.90;;;;;;1908655;74;21042;-75
2021/05/23 06:43:24;;;;;;;13.20;2.72;;;12.10;99.90;;;;;;1911303;74;21108;-76
2021/05/23 06:45:51;;;;;;;14.20;3.25;;;12.10;99.90;;;;;;1910313;74;21117;-77
2021/05/23 06:48:20;;;;;;;13.55;2.35;;;12.20;99.90;;;;;;1912286;74;21070;-75
2021/05/23 06:50:48;;;;;;;14.35;2.45;;;12.20;99.90;;;;;;1911653;74;21112;-76
2021/05/23 06:53:15;;;;;;;16.17;2.72;;;12.10;99.90;;;;;;1912538;74;21092;-76
2021/05/23 06:55:43;;;;;;;9.45;2.25;;;12.00;99.90;;;;;;1911930;74;21108;-74
2021/05/23 06:58:10;;;;;;;15.38;2.50;;;12.10;99.90;;;;;;1908537;74;21038;-77
2021/05/23 07:00:38;;;;;;;16.48;2.77;;;12.20;99.90;;;;;;1904860;74;21662;-77
2021/05/23 07:03:06;;;;;;;10.60;2.05;;;12.20;99.90;;;;;;1911549;74;21669;-75
2021/05/23 07:05:33;;;;;;;10.40;1.95;;;12.20;99.90;;;;;;1897375;74;21653;-77
2021/05/23 07:08:01;;;;;;;10.93;1.85;;;12.30;99.90;;;;;;1901406;74;21167;-77
2021/05/23 07:10:28;;;;;;;9.43;2.02;;;12.50;99.90;;;;;;1910871;74;21327;-77
2021/05/23 07:12:56;;;;;;;11.20;3.75;;;12.50;99.90;;;;;;1897485;74;21653;-75
2021/05/23 07:15:23;;;;;;;16.97;3.00;;;12.50;99.90;;;;;;1902010;74;21151;-77
2021/05/23 07:17:53;;;;;;;16.12;3.08;;;12.30;99.90;;;;;;1897499;74;21612;-76
2021/05/23 07:20:21;;;;;;;9.70;1.80;;;12.30;99.90;;;;;;1901716;73;21187;-77
2021/05/23 07:22:48;;;;;;;15.63;1.95;;;12.40;99.90;;;;;;1878381;75;21040;-77
2021/05/23 07:25:16;;;;;;;6.67;1.60;;;12.50;99.90;;;;;;1882101;75;21569;-77
2021/05/23 07:27:44;;;;;;;11.83;2.50;;;12.70;99.90;;;;;;1883859;75;21079;-78
2021/05/23 07:30:12;;;;;;;13.13;2.72;;;12.70;99.90;;;;;;1882805;75;21402;-77
2021/05/23 07:32:40;;;;;;;16.10;2.50;;;12.80;99.90;;;;;;1879673;75;21110;-79
2021/05/23 07:35:08;;;;;;;11.30;2.30;;;12.80;99.90;;;;;;1882214;75;21130;-77
2021/05/23 07:37:36;;;;;;;9.20;2.12;;;12.80;99.90;;;;;;1882416;75;21086;-78
2021/05/23 07:40:24;;;;;;;14.33;2.75;;;12.80;99.90;;;;;;1875511;75;21606;-78
2021/05/23 07:42:51;;;;;;;8.70;1.85;;;12.80;99.90;;;;;;1863477;75;21580;-77
2021/05/23 07:45:19;;;;;;;12.78;2.35;;;12.80;99.90;;;;;;1865023;74;21158;-79
2021/05/23 07:47:46;;;;;;;13.22;2.27;;;12.90;99.90;;;;;;1862123;76;21182;-77
2021/05/23 07:50:14;;;;;;;9.30;1.80;;;12.80;99.90;;;;;;1860878;76;21751;-77
2021/05/23 07:52:42;;;;;;;7.58;1.70;;;12.80;99.90;;;;;;1860751;76;21122;-75
2021/05/23 07:55:10;;;;;;;11.33;1.62;;;12.80;99.90;;;;;;1868720;74;21239;-77
2021/05/23 07:57:38;;;;;;;8.93;2.22;;;12.80;99.90;;;;;;1831017;77;21096;-77
2021/05/23 08:00:06;;;;;;;9.65;1.60;;;12.90;99.90;;;;;;1824818;77;21116;-78
2021/05/23 08:02:34;;;;;;;9.55;1.80;;;13.00;99.90;;;;;;1878419;75;21112;-77
2021/05/23 08:05:03;;;;;;;9.15;1.75;;;12.90;99.90;;;;;;1892768;74;21129;-76
2021/05/23 08:07:30;;;;;;;7.37;1.50;;;12.90;99.90;;;;;;1891339;75;21162;-76
2021/05/23 08:09:58;;;;;;;8.08;1.62;;;12.80;99.90;;;;;;1889748;75;21368;-77
2021/05/23 08:12:25;;;;;;;9.70;1.90;;;13.00;99.90;;;;;;1892686;74;21105;-77
2021/05/23 08:14:53;;;;;;;10.63;2.22;;;13.20;99.90;;;;;;1890558;74;21094;-76
2021/05/23 08:17:20;;;;;;;8.38;1.70;;;13.10;99.90;;;;;;1889657;75;21167;-76
2021/05/23 08:19:48;;;;;;;11.73;1.95;;;13.20;99.90;;;;;;1892139;74;21377;-77
2021/05/23 08:22:15;;;;;;;10.60;1.77;;;13.20;99.90;;;;;;1896001;74;21638;-76
2021/05/23 08:24:43;;;;;;;11.53;2.10;;;13.20;99.90;;;;;;1890121;74;21105;-75
2021/05/23 08:27:10;;;;;;;9.45;1.70;;;13.20;99.90;;;;;;1890869;74;21062;-76
2021/05/23 08:29:38;;;;;;;8.45;1.27;;;13.30;99.90;;;;;;1888026;75;21089;-79
2021/05/23 08:32:07;;;;;;;6.83;1.32;;;13.30;99.90;;;;;;1889966;74;21081;-77
2021/05/23 08:34:35;;;;;;;8.53;1.60;;;13.30;99.90;;;;;;1887571;74;21493;-77
2021/05/23 08:37:02;;;;;;;5.20;0.93;;;13.30;99.90;;;;;;1891971;74;21658;-78
2021/05/23 08:39:31;;;;;;;4.53;1.30;;;13.40;99.90;;;;;;1890826;74;21078;-77
2021/05/23 08:41:58;;;;;;;8.10;1.25;;;13.60;99.90;;;;;;1891818;74;21105;-76
2021/05/23 08:44:28;;;;;;;5.75;1.32;;;13.70;99.90;;;;;;1891728;75;21199;-77
2021/05/23 08:46:56;;;;;;;9.93;1.67;;;13.80;99.90;;;;;;1889586;74;21191;-80
2021/05/23 08:49:26;;;;;;;5.70;1.40;;;13.80;99.90;;;;;;1892660;74;21058;-77
2021/05/23 08:51:53;;;;;;;7.05;1.62;;;13.80;99.90;;;;;;1893361;74;21563;-76
2021/05/23 08:54:21;;;;;;;3.47;1.50;;;13.90;99.90;;;;;;1891516;74;21228;-77
2021/05/23 08:56:51;;;;;;;6.25;1.40;;;14.00;99.90;;;;;;1889704;74;21148;-75
2021/05/23 08:59:19;;;;;;;5.97;1.67;;;14.20;99.90;;;;;;1863317;75;21156;-77
2021/05/23 09:01:47;;;;;;;4.85;1.70;;;14.30;99.90;;;;;;1863779;75;21629;-77
2021/05/23 09:04:21;;;;;;;6.12;1.77;;;14.20;99.70;;;;;;1866814;75;21200;-79
2021/05/23 09:06:48;;;;;;;6.75;1.60;;;14.10;99.90;;;;;;1862159;75;21223;-77
2021/05/23 09:09:16;;;;;;;5.92;1.40;;;14.20;99.90;;;;;;1858779;75;22351;-79
2021/05/23 09:11:55;;;;;;;5.40;1.35;;;14.30;99.90;;;;;;1859510;75;21056;-82
2021/05/23 09:14:32;;;;;;;6.25;1.60;;;14.30;99.90;;;;;;1863548;74;21171;-76
2021/05/23 09:17:00;;;;;;;8.83;1.77;;;14.40;99.90;;;;;;1863258;75;21090;-77
2021/05/23 09:19:29;;;;;;;6.47;1.67;;;14.40;99.90;;;;;;1863859;75;21653;-78
2021/05/23 09:21:59;;;;;;;6.97;1.90;;;14.40;99.90;;;;;;1865153;75;21681;-78
2021/05/23 09:24:26;;;;;;;7.22;2.02;;;14.50;99.90;;;;;;1861869;75;21655;-78
2021/05/23 09:26:54;;;;;;;9.08;2.05;;;14.50;99.90;;;;;;1862986;75;22373;-78
2021/05/23 09:29:22;;;;;;;5.17;1.40;;;14.40;99.90;;;;;;1863865;75;21111;-76
2021/05/23 09:32:07;;;;;;;5.72;1.60;;;14.40;99.90;;;;;;1861829;75;21112;-78
2021/05/23 09:34:33;;;;;;;11.12;2.62;;;14.40;99.90;;;;;;1861571;75;21185;-76
2021/05/23 09:37:01;;;;;;;10.18;2.08;;;14.50;99.90;;;;;;1862866;75;21147;-76
2021/05/23 09:39:36;;;;;;;13.58;2.27;;;14.50;99.90;;;;;;1818868;77;21074;-76
2021/05/23 09:42:06;;;;;;;8.23;2.17;;;14.60;99.90;;;;;;1865077;75;21113;-76
2021/05/23 09:44:34;;;;;;;5.83;2.08;;;14.60;99.90;;;;;;1860735;75;21141;-76
2021/05/23 09:47:04;;;;;;;6.92;1.82;;;14.70;99.90;;;;;;1862097;75;22035;-77
2021/05/23 09:49:46;;;;;;;5.10;2.17;;;14.60;99.90;;;;;;1830679;77;21140;-76
2021/05/23 09:52:16;;;;;;;7.87;1.90;;;14.60;99.90;;;;;;1853460;76;21105;-75
2021/05/23 09:54:51;;;;;;;7.28;2.15;;;14.50;99.90;;;;;;1856779;76;21148;-75
2021/05/23 09:57:21;;;;;;;3.45;2.00;;;14.40;99.90;;;;;;1851379;76;21772;-76
2021/05/23 10:00:03;;;;;;;4.28;1.80;;;14.40;99.90;;;;;;1852600;76;21152;-75
2021/05/23 10:02:31;;;;;;;6.75;2.47;;;14.40;99.90;;;;;;1855607;76;21100;-76
2021/05/23 10:05:04;;;;;;;9.53;2.87;;;14.40;99.90;;;;;;1855639;76;21166;-75
2021/05/23 10:07:35;;;;;;;5.20;1.80;;;14.50;99.90;;;;;;1855201;76;21042;-76
2021/05/23 10:10:03;;;;;;;7.40;2.27;;;14.70;99.90;;;;;;1856303;76;21126;-75
2021/05/23 10:12:32;;;;;;;6.22;1.90;;;14.80;99.90;;;;;;1858422;76;21173;-75
2021/05/23 10:14:59;;;;;;;7.78;2.42;;;14.60;99.90;;;;;;1823312;77;21555;-76
2021/05/23 10:17:27;;;;;;;7.17;3.10;;;14.40;99.90;;;;;;1830693;77;21109;-75
2021/05/23 10:19:56;;;;;;;8.88;2.37;;;14.40;99.90;;;;;;1857559;75;21606;-75
2021/05/23 10:22:25;;;;;;;6.33;2.20;;;14.40;99.90;;;;;;1862336;75;21087;-75
2021/05/23 10:24:55;;;;;;;4.85;2.25;;;14.50;99.90;;;;;;1862153;75;21653;-75
2021/05/23 10:27:25;;;;;;;9.48;2.33;;;14.40;99.90;;;;;;1828837;77;21139;-75
2021/05/23 10:29:54;;;;;;;4.45;2.30;;;14.40;99.90;;;;;;1824628;77;21172;-74
2021/05/23 10:32:30;;;;;;;7.20;2.65;;;14.50;99.90;;;;;;1859565;76;21064;-75
2021/05/23 10:35:00;;;;;;;6.85;2.37;;;14.60;99.90;;;;;;1864050;75;21188;-75
2021/05/23 10:37:29;;;;;;;6.80;2.60;;;14.60;99.90;;;;;;1860384;75;21199;-75
2021/05/23 10:39:58;;;;;;;5.92;2.37;;;14.70;99.90;;;;;;1865508;76;21062;-75
2021/05/23 10:42:28;;;;;;;5.75;2.27;;;14.80;99.90;;;;;;1860003;75;21128;-74
2021/05/23 10:44:57;;;;;;;6.05;2.42;;;14.80;99.90;;;;;;1833966;77;21192;-75
2021/05/23 10:47:30;;;;;;;5.80;2.50;;;14.60;99.90;;;;;;1869090;75;21124;-75
2021/05/23 10:50:08;;;;;;;7.05;2.10;;;14.60;99.90;;;;;;1864965;76;21148;-75
2021/05/23 10:52:40;;;;;;;7.35;2.27;;;14.70;99.90;;;;;;1860827;76;21149;-74
2021/05/23 10:55:10;;;;;;;5.15;2.37;;;14.80;99.90;;;;;;1825251;77;21262;-75
2021/05/23 10:57:48;;;;;;;6.90;2.10;;;14.70;99.90;;;;;;1828217;77;21218;-76
2021/05/23 11:00:22;;;;;;;6.15;2.40;;;14.70;99.90;;;;;;1877926;75;21376;-75
2021/05/23 11:02:52;;;;;;;8.85;2.65;;;14.50;99.90;;;;;;1885636;75;21054;-75
2021/05/23 11:05:31;;;;;;;8.40;2.70;;;14.40;99.90;;;;;;1890162;75;21078;-76
2021/05/23 11:08:00;;;;;;;6.20;2.40;;;14.30;99.90;;;;;;1890885;75;21128;-73
2021/05/23 11:10:33;;;;;;;5.22;2.20;;;14.40;99.90;;;;;;1871671;73;21195;-77
2021/05/23 11:13:02;;;;;;;6.10;2.20;;;14.50;99.90;;;;;;1855470;76;21158;-77
2021/05/23 11:15:44;;;;;;;7.33;2.77;;;14.80;99.90;;;;;;1853750;76;21117;-78
2021/05/23 11:18:17;;;;;;;6.03;2.90;;;14.80;99.90;;;;;;1834900;76;21105;-79
2021/05/23 11:20:59;;;;;;;5.35;2.77;;;14.80;99.90;;;;;;1835525;77;21103;-77
2021/05/23 11:23:28;;;;;;;4.60;2.27;;;14.60;99.90;;;;;;1801535;78;21176;-79
2021/05/23 11:26:14;;;;;;;5.50;2.90;;;14.60;99.90;;;;;;1800285;78;21038;-76
2021/05/23 11:28:51;;;;;;;5.85;2.65;;;14.50;99.90;;;;;;1822349;77;21045;-76
2021/05/23 11:31:30;;;;;;;12.88;2.60;;;14.40;99.90;;;;;;1794661;78;21675;-76
2021/05/23 11:33:58;;;;;;;8.05;2.87;;;14.40;99.90;;;;;;1792354;79;21504;-76
2021/05/23 11:36:28;;;;;;;5.80;2.80;;;14.50;99.90;;;;;;1830885;77;21112;-77
2021/05/23 11:38:58;;;;;;;6.28;2.77;;;14.60;99.90;;;;;;1827440;77;21089;-76
2021/05/23 11:41:33;;;;;;;6.67;2.80;;;14.50;99.90;;;;;;1832441;77;21041;-76
2021/05/23 11:44:02;;;;;;;5.92;2.90;;;14.70;99.90;;;;;;1833113;77;21760;-76
2021/05/23 11:46:30;;;;;;;9.83;2.85;;;14.80;99.90;;;;;;1838278;77;21492;-77
2021/05/23 11:48:59;;;;;;;4.22;2.45;;;14.90;99.90;;;;;;1835639;77;21178;-77
2021/05/23 11:51:29;;;;;;;5.12;2.35;;;15.20;99.90;;;;;;1839077;77;21133;-76
2021/05/23 11:53:59;;;;;;;5.83;2.35;;;15.30;99.90;;;;;;1835879;77;21184;-76
2021/05/23 11:56:29;;;;;;;5.53;2.00;;;15.10;99.90;;;;;;1838539;77;21112;-77
2021/05/23 11:58:59;;;;;;;4.15;2.22;;;15.00;99.90;;;;;;1834199;77;21279;-78
2021/05/23 12:01:33;;;;;;;7.00;2.70;;;15.00;99.90;;;;;;1836611;77;21182;-77
2021/05/23 12:03:59;;;;;;;3.52;2.30;;;14.80;99.90;;;;;;1830709;76;21171;-78
2021/05/23 12:06:29;;;;;;;5.55;2.30;;;14.70;99.90;;;;;;1831536;77;21117;-79
2021/05/23 12:09:10;;;;;;;6.45;2.22;;;14.70;99.90;;;;;;1832609;77;21613;-79
2021/05/23 12:11:40;;;;;;;2.12;1.70;;;14.90;99.90;;;;;;1830957;77;21279;-78
2021/05/23 12:14:22;;;;;;;4.45;1.90;;;15.10;99.90;;;;;;1831214;77;21175;-77
2021/05/23 12:16:53;;;;;;;3.75;1.80;;;15.10;99.90;;;;;;1830972;77;21156;-77
2021/05/23 12:19:20;;;;;;;4.35;2.02;;;15.30;99.90;;;;;;1825824;77;21510;-78
2021/05/23 12:21:48;;;;;;;3.45;1.50;;;15.30;99.90;;;;;;1830912;77;21137;-78
2021/05/23 12:24:15;;;;;;;2.65;1.50;;;15.30;99.90;;;;;;1833101;77;21112;-78
2021/05/23 12:26:43;;;;;;;3.60;1.85;;;15.40;99.90;;;;;;1831379;77;21042;-82
2021/05/23 12:29:10;;;;;;;4.30;1.70;;;15.60;99.90;;;;;;1834539;77;21121;-81
2021/05/23 12:31:38;;;;;;;5.90;2.00;;;15.40;99.90;;;;;;1829821;77;21128;-82
2021/05/23 12:34:06;;;;;;;2.37;1.65;;;15.40;99.90;;;;;;1833428;77;21104;-83
2021/05/23 12:36:34;;;;;;;3.42;2.00;;;15.40;99.90;;;;;;1835118;77;21182;-82
2021/05/23 12:39:07;;;;;;;7.47;3.05;;;15.50;99.90;;;;;;1832983;77;21350;-83
2021/05/23 12:41:36;;;;;;;7.00;3.60;;;15.40;99.90;;;;;;1832757;77;21129;-82
2021/05/23 12:44:06;;;;;;;5.08;3.52;;;15.10;99.90;;;;;;1831040;77;21110;-82
2021/05/23 12:46:33;;;;;;;7.15;4.17;;;14.60;99.90;;;;;;1835734;77;21078;-82
2021/05/23 12:49:01;;;;;;;7.97;4.17;;;14.50;99.90;;;;;;1833041;75;21144;-83
2021/05/23 12:51:28;;;;;;;8.75;4.90;;;14.40;99.90;;;;;;1831037;77;21640;-80
2021/05/23 12:53:58;;;;;;;7.28;4.40;;;14.30;99.90;;;;;;1832083;77;21583;-84